createdAt,value
2019-05-15T00:00:03.204Z,0.00
2019-05-15T00:01:03.298Z,0.00
2019-05-15T00:02:03.376Z,0.00
2019-05-15T00:03:03.466Z,0.00
2019-05-15T00:04:03.557Z,0.00
2019-05-15T00:05:03.645Z,0.00
2019-05-15T00:06:03.731Z,0.00
2019-05-15T00:07:03.828Z,0.00
2019-05-15T00:08:03.912Z,0.00
2019-05-15T00:09:04.001Z,0.00
2019-05-15T00:10:04.084Z,0.00
2019-05-15T00:11:04.173Z,0.00
2019-05-15T00:12:04.263Z,0.00
2019-05-15T00:13:04.338Z,0.00
2019-05-15T00:14:04.424Z,0.00
2019-05-15T00:15:04.520Z,0.00
2019-05-15T00:16:04.605Z,0.00
2019-05-15T00:17:04.694Z,0.00
2019-05-15T00:18:04.781Z,0.00
2019-05-15T00:19:04.868Z,0.00
2019-05-15T00:20:04.970Z,0.00
2019-05-15T00:21:05.048Z,0.00
2019-05-15T00:22:05.136Z,0.00
2019-05-15T00:23:05.213Z,0.00
2019-05-15T00:24:05.312Z,0.00
2019-05-15T00:25:05.414Z,0.00
2019-05-15T00:26:05.501Z,0.00
2019-05-15T00:27:05.590Z,0.00
2019-05-15T00:28:05.671Z,0.00
2019-05-15T00:29:12.877Z,0.00
2019-05-15T00:30:05.855Z,0.00
2019-05-15T00:31:05.942Z,0.00
2019-05-15T00:32:06.036Z,0.00
2019-05-15T00:33:08.652Z,0.00
2019-05-15T00:34:12.471Z,0.00
2019-05-15T00:35:06.305Z,0.00
2019-05-15T00:36:08.483Z,0.00
2019-05-15T00:37:08.925Z,0.00
2019-05-15T00:38:09.029Z,0.00
2019-05-15T00:39:08.503Z,0.00
2019-05-15T00:40:08.867Z,0.00
2019-05-15T00:41:09.144Z,0.00
2019-05-15T00:42:08.249Z,0.00
2019-05-15T00:43:08.846Z,0.00
2019-05-15T00:44:09.151Z,0.00
2019-05-15T00:45:09.505Z,0.00
2019-05-15T00:46:09.151Z,0.00
2019-05-15T00:47:10.496Z,0.00
2019-05-15T00:48:08.798Z,0.00
2019-05-15T00:49:08.657Z,0.00
2019-05-15T00:50:08.915Z,0.00
2019-05-15T00:51:08.469Z,0.00
2019-05-15T00:52:12.108Z,0.00
2019-05-15T00:53:08.655Z,0.00
2019-05-15T00:54:08.452Z,0.00
2019-05-15T00:55:08.624Z,0.00
2019-05-15T00:56:08.927Z,0.00
2019-05-15T00:57:08.612Z,0.00
2019-05-15T00:58:08.863Z,0.00
2019-05-15T00:59:08.508Z,0.00
2019-05-15T01:00:08.519Z,0.00
2019-05-15T01:01:08.614Z,0.00
2019-05-15T01:02:08.838Z,0.00
2019-05-15T01:03:08.991Z,0.00
2019-05-15T01:04:08.888Z,0.00
2019-05-15T01:05:08.968Z,0.00
2019-05-15T01:06:09.052Z,0.00
2019-05-15T01:07:09.148Z,0.00
2019-05-15T01:08:09.232Z,0.00
2019-05-15T01:09:09.321Z,0.00
2019-05-15T01:10:10.027Z,0.00
2019-05-15T01:11:09.493Z,0.00
2019-05-15T01:12:09.595Z,0.00
2019-05-15T01:13:09.673Z,0.00
2019-05-15T01:14:12.159Z,0.00
2019-05-15T01:15:09.843Z,0.00
2019-05-15T01:16:09.934Z,0.00
2019-05-15T01:17:10.019Z,0.00
2019-05-15T01:18:10.106Z,0.00
2019-05-15T01:19:10.193Z,0.00
2019-05-15T01:20:10.279Z,0.00
2019-05-15T01:21:10.374Z,0.00
2019-05-15T01:22:10.460Z,0.00
2019-05-15T01:23:10.570Z,0.00
2019-05-15T01:24:10.633Z,0.00
2019-05-15T01:25:10.720Z,0.00
2019-05-15T01:26:10.810Z,0.00
2019-05-15T01:27:10.898Z,0.00
2019-05-15T01:28:10.987Z,0.00
2019-05-15T01:29:11.069Z,0.00
2019-05-15T01:30:11.156Z,0.00
2019-05-15T01:31:11.245Z,0.00
2019-05-15T01:32:11.335Z,0.00
2019-05-15T01:33:11.422Z,0.00
2019-05-15T01:34:11.519Z,0.00
2019-05-15T01:35:11.609Z,0.00
2019-05-15T01:36:11.690Z,0.00
2019-05-15T01:37:11.776Z,0.00
2019-05-15T01:38:11.864Z,0.00
2019-05-15T01:39:11.956Z,0.00
2019-05-15T01:40:12.046Z,0.00
2019-05-15T01:41:12.134Z,0.00
2019-05-15T01:42:12.226Z,0.00
2019-05-15T01:43:12.317Z,0.00
2019-05-15T01:44:12.399Z,0.00
2019-05-15T01:45:12.490Z,0.00
2019-05-15T01:46:12.578Z,0.00
2019-05-15T01:47:12.669Z,0.00
2019-05-15T01:48:12.756Z,0.00
2019-05-15T01:49:12.846Z,0.00
2019-05-15T01:50:12.932Z,0.00
2019-05-15T01:51:13.035Z,0.00
2019-05-15T01:52:13.141Z,0.00
2019-05-15T01:53:13.213Z,0.00
2019-05-15T01:54:13.301Z,0.00
2019-05-15T01:55:13.391Z,0.00
2019-05-15T01:56:13.484Z,0.00
2019-05-15T01:57:13.573Z,0.00
2019-05-15T01:58:13.662Z,0.00
2019-05-15T01:59:13.745Z,0.00
2019-05-15T02:00:13.843Z,0.00
2019-05-15T02:01:13.918Z,0.00
2019-05-15T02:02:14.010Z,0.00
2019-05-15T02:03:14.099Z,0.00
2019-05-15T02:04:14.196Z,0.00
2019-05-15T02:05:14.284Z,0.00
2019-05-15T02:06:14.378Z,0.00
2019-05-15T02:07:14.463Z,0.00
2019-05-15T02:08:14.555Z,0.00
2019-05-15T02:09:14.640Z,0.00
2019-05-15T02:10:14.734Z,0.00
2019-05-15T02:11:14.814Z,0.00
2019-05-15T02:12:14.907Z,0.00
2019-05-15T02:13:14.992Z,0.00
2019-05-15T02:14:15.091Z,0.00
2019-05-15T02:15:15.171Z,0.00
2019-05-15T02:16:15.257Z,0.00
2019-05-15T02:17:15.347Z,0.00
2019-05-15T02:18:15.434Z,0.00
2019-05-15T02:19:15.516Z,0.00
2019-05-15T02:20:15.605Z,0.00
2019-05-15T02:21:18.107Z,0.00
2019-05-15T02:22:15.779Z,0.00
2019-05-15T02:23:15.871Z,0.00
2019-05-15T02:24:15.954Z,0.00
2019-05-15T02:25:18.412Z,0.00
2019-05-15T02:26:18.686Z,0.00
2019-05-15T02:27:18.452Z,0.00
2019-05-15T02:28:18.317Z,0.00
2019-05-15T02:29:20.227Z,0.00
2019-05-15T02:30:27.932Z,0.00
2019-05-15T02:31:19.594Z,0.00
2019-05-15T02:32:19.298Z,0.00
2019-05-15T02:33:18.919Z,0.00
2019-05-15T02:34:19.541Z,0.00
2019-05-15T02:35:18.521Z,0.00
2019-05-15T02:36:20.231Z,0.00
2019-05-15T02:37:19.268Z,0.00
2019-05-15T02:38:19.962Z,0.00
2019-05-15T02:39:19.006Z,0.00
2019-05-15T02:40:19.052Z,0.00
2019-05-15T02:41:19.553Z,0.00
2019-05-15T02:42:19.195Z,0.00
2019-05-15T02:43:18.958Z,0.00
2019-05-15T02:44:19.935Z,0.00
2019-05-15T02:45:19.498Z,0.00
2019-05-15T02:46:19.426Z,0.00
2019-05-15T02:47:19.928Z,0.00
2019-05-15T02:48:19.956Z,0.00
2019-05-15T02:49:19.229Z,0.00
2019-05-15T02:50:20.368Z,4.00
2019-05-15T02:51:19.342Z,4.00
2019-05-15T02:52:19.898Z,4.00
2019-05-15T02:53:19.081Z,4.00
2019-05-15T02:54:19.686Z,4.00
2019-05-15T02:55:19.764Z,4.00
2019-05-15T02:56:20.372Z,4.00
2019-05-15T02:57:19.258Z,0.00
2019-05-15T02:58:21.188Z,4.00
2019-05-15T02:59:19.632Z,4.00
2019-05-15T03:00:36.064Z,4.00
2019-05-15T03:01:19.254Z,8.00
2019-05-15T03:02:19.353Z,4.00
2019-05-15T03:03:20.600Z,4.00
2019-05-15T03:04:20.083Z,8.00
2019-05-15T03:05:19.695Z,8.00
2019-05-15T03:06:19.683Z,8.00
2019-05-15T03:07:19.803Z,12.00
2019-05-15T03:08:19.947Z,12.00
2019-05-15T03:09:19.975Z,16.00
2019-05-15T03:10:20.196Z,12.00
2019-05-15T03:11:20.142Z,16.00
2019-05-15T03:12:20.249Z,20.00
2019-05-15T03:13:20.327Z,20.00
2019-05-15T03:14:21.447Z,24.00
2019-05-15T03:15:20.501Z,28.00
2019-05-15T03:16:20.589Z,28.00
2019-05-15T03:17:20.680Z,32.00
2019-05-15T03:18:20.764Z,36.00
2019-05-15T03:19:20.894Z,44.00
2019-05-15T03:20:20.953Z,48.00
2019-05-15T03:21:21.006Z,52.00
2019-05-15T03:22:21.095Z,60.00
2019-05-15T03:23:21.185Z,68.00
2019-05-15T03:24:21.274Z,76.00
2019-05-15T03:25:21.364Z,84.00
2019-05-15T03:26:21.453Z,96.00
2019-05-15T03:27:21.538Z,104.00
2019-05-15T03:28:21.625Z,112.00
2019-05-15T03:29:21.722Z,120.00
2019-05-15T03:30:22.352Z,132.00
2019-05-15T03:31:41.559Z,144.00
2019-05-15T03:32:33.723Z,160.00
2019-05-15T03:33:27.709Z,172.00
2019-05-15T03:34:28.888Z,192.00
2019-05-15T03:35:23.335Z,208.00
2019-05-15T03:36:24.072Z,228.00
2019-05-15T03:37:22.962Z,248.00
2019-05-15T03:38:22.501Z,268.00
2019-05-15T03:39:22.593Z,288.00
2019-05-15T03:40:22.683Z,312.00
2019-05-15T03:41:22.770Z,328.00
2019-05-15T03:42:22.858Z,352.00
2019-05-15T03:43:22.953Z,380.00
2019-05-15T03:44:23.041Z,404.00
2019-05-15T03:45:23.127Z,428.00
2019-05-15T03:46:23.215Z,448.00
2019-05-15T03:47:23.306Z,472.00
2019-05-15T03:48:23.392Z,500.00
2019-05-15T03:49:23.479Z,520.00
2019-05-15T03:50:23.567Z,548.00
2019-05-15T03:51:23.662Z,572.00
2019-05-15T03:52:23.745Z,596.00
2019-05-15T03:53:23.838Z,624.00
2019-05-15T03:54:23.921Z,648.00
2019-05-15T03:55:24.021Z,676.00
2019-05-15T03:56:24.105Z,704.00
2019-05-15T03:57:24.195Z,728.00
2019-05-15T03:58:24.281Z,752.00
2019-05-15T03:59:24.381Z,776.00
2019-05-15T04:00:24.469Z,800.00
2019-05-15T04:01:34.191Z,824.00
2019-05-15T04:02:24.641Z,848.00
2019-05-15T04:03:24.741Z,868.00
2019-05-15T04:04:24.815Z,892.00
2019-05-15T04:05:24.902Z,920.00
2019-05-15T04:06:24.994Z,940.00
2019-05-15T04:07:25.078Z,964.00
2019-05-15T04:08:25.161Z,988.00
2019-05-15T04:09:25.249Z,1008.00
2019-05-15T04:10:25.333Z,1032.00
2019-05-15T04:11:25.425Z,1052.00
2019-05-15T04:12:28.753Z,1072.00
2019-05-15T04:13:25.596Z,1092.00
2019-05-15T04:14:25.694Z,1124.00
2019-05-15T04:15:25.777Z,1140.00
2019-05-15T04:16:25.884Z,1148.00
2019-05-15T04:17:29.254Z,1172.00
2019-05-15T04:18:28.835Z,1184.00
2019-05-15T04:19:29.355Z,1204.00
2019-05-15T04:20:29.447Z,1220.00
2019-05-15T04:21:26.316Z,1240.00
2019-05-15T04:22:29.064Z,1256.00
2019-05-15T04:23:29.792Z,1268.00
2019-05-15T04:24:29.880Z,1288.00
2019-05-15T04:25:29.432Z,1304.00
2019-05-15T04:26:28.745Z,1332.00
2019-05-15T04:27:28.945Z,1336.00
2019-05-15T04:28:29.316Z,1352.00
2019-05-15T04:29:28.908Z,1360.00
2019-05-15T04:30:27.136Z,1380.00
2019-05-15T04:31:31.645Z,1392.00
2019-05-15T04:32:28.913Z,1408.00
2019-05-15T04:33:29.346Z,1424.00
2019-05-15T04:34:28.978Z,1436.00
2019-05-15T04:35:28.917Z,1444.00
2019-05-15T04:36:29.618Z,1460.00
2019-05-15T04:37:29.926Z,1472.00
2019-05-15T04:38:29.214Z,1496.00
2019-05-15T04:39:29.654Z,1504.00
2019-05-15T04:40:29.931Z,1516.00
2019-05-15T04:41:29.947Z,1528.00
2019-05-15T04:42:29.866Z,1540.00
2019-05-15T04:43:30.174Z,1548.00
2019-05-15T04:44:28.898Z,1564.00
2019-05-15T04:45:34.484Z,1576.00
2019-05-15T04:46:29.908Z,1592.00
2019-05-15T04:47:30.214Z,1600.00
2019-05-15T04:48:29.114Z,1612.00
2019-05-15T04:49:29.298Z,1628.00
2019-05-15T04:50:29.039Z,1636.00
2019-05-15T04:51:30.454Z,1644.00
2019-05-15T04:52:30.354Z,1656.00
2019-05-15T04:53:33.207Z,1668.00
2019-05-15T04:54:29.238Z,1680.00
2019-05-15T04:55:29.338Z,1688.00
2019-05-15T04:56:29.523Z,1700.00
2019-05-15T04:57:33.822Z,1708.00
2019-05-15T04:58:29.876Z,1740.00
2019-05-15T04:59:30.095Z,1740.00
2019-05-15T05:00:29.762Z,1756.00
2019-05-15T05:01:29.851Z,1768.00
2019-05-15T05:02:32.179Z,1784.00
2019-05-15T05:03:34.017Z,1796.00
2019-05-15T05:04:30.134Z,1816.00
2019-05-15T05:05:30.222Z,1832.00
2019-05-15T05:06:30.319Z,1840.00
2019-05-15T05:07:30.417Z,1852.00
2019-05-15T05:08:30.510Z,1868.00
2019-05-15T05:09:30.595Z,1880.00
2019-05-15T05:10:30.683Z,1896.00
2019-05-15T05:11:30.774Z,1904.00
2019-05-15T05:12:30.860Z,1920.00
2019-05-15T05:13:30.951Z,1932.00
2019-05-15T05:14:31.045Z,1948.00
2019-05-15T05:15:31.129Z,1956.00
2019-05-15T05:16:31.215Z,1968.00
2019-05-15T05:17:31.309Z,1972.00
2019-05-15T05:18:31.430Z,1980.00
2019-05-15T05:19:31.496Z,1996.00
2019-05-15T05:20:31.553Z,2016.00
2019-05-15T05:21:31.648Z,2036.00
2019-05-15T05:22:31.735Z,2044.00
2019-05-15T05:23:31.827Z,2060.00
2019-05-15T05:24:31.915Z,2112.00
2019-05-15T05:25:32.004Z,2096.00
2019-05-15T05:26:32.092Z,2116.00
2019-05-15T05:27:32.182Z,2144.00
2019-05-15T05:28:32.282Z,2712.00
2019-05-15T05:29:32.372Z,4548.00
2019-05-15T05:30:32.460Z,2788.00
2019-05-15T05:31:32.548Z,2244.00
2019-05-15T05:32:35.238Z,2260.00
2019-05-15T05:33:32.798Z,2312.00
2019-05-15T05:34:32.753Z,12484.00
2019-05-15T05:35:32.843Z,27232.00
2019-05-15T05:36:32.933Z,28032.00
2019-05-15T05:37:33.021Z,37664.00
2019-05-15T05:38:33.111Z,45248.00
2019-05-15T05:39:33.202Z,40896.00
2019-05-15T05:40:33.308Z,32768.00
2019-05-15T05:41:33.385Z,26336.00
2019-05-15T05:42:33.481Z,19200.00
2019-05-15T05:43:33.572Z,22656.00
2019-05-15T05:44:33.661Z,32832.00
2019-05-15T05:45:33.752Z,32384.00
2019-05-15T05:46:33.862Z,31232.00
2019-05-15T05:47:33.942Z,30336.00
2019-05-15T05:48:34.037Z,29216.00
2019-05-15T05:49:34.125Z,27968.00
2019-05-15T05:50:34.218Z,27392.00
2019-05-15T05:51:34.312Z,27744.00
2019-05-15T05:52:34.405Z,29440.00
2019-05-15T05:53:34.499Z,32576.00
2019-05-15T05:54:34.593Z,35648.00
2019-05-15T05:55:34.688Z,37024.00
2019-05-15T05:56:34.781Z,38080.00
2019-05-15T05:57:34.876Z,38720.00
2019-05-15T05:58:34.972Z,38592.00
2019-05-15T05:59:35.065Z,38976.00
2019-05-15T06:00:35.160Z,39872.00
2019-05-15T06:01:38.297Z,40448.00
2019-05-15T06:02:44.701Z,40672.00
2019-05-15T06:03:35.450Z,41248.00
2019-05-15T06:04:35.546Z,41088.00
2019-05-15T06:05:35.642Z,40192.00
2019-05-15T06:06:38.272Z,39264.00
2019-05-15T06:07:38.398Z,26752.00
2019-05-15T06:08:35.945Z,11056.00
2019-05-15T06:09:37.945Z,12000.00
2019-05-15T06:10:38.551Z,18368.00
2019-05-15T06:11:38.070Z,23264.00
2019-05-15T06:12:38.574Z,23328.00
2019-05-15T06:13:38.226Z,24608.00
2019-05-15T06:14:38.052Z,26496.00
2019-05-15T06:15:37.973Z,28128.00
2019-05-15T06:16:38.732Z,28384.00
2019-05-15T06:17:39.209Z,27936.00
2019-05-15T06:18:38.882Z,27264.00
2019-05-15T06:19:38.653Z,27936.00
2019-05-15T06:20:39.362Z,28992.00
2019-05-15T06:21:39.187Z,25632.00
2019-05-15T06:22:38.701Z,17312.00
2019-05-15T06:23:44.154Z,8056.00
2019-05-15T06:24:37.999Z,3896.00
2019-05-15T06:25:39.103Z,3812.00
2019-05-15T06:26:38.630Z,3776.00
2019-05-15T06:27:39.005Z,3760.00
2019-05-15T06:28:39.363Z,3768.00
2019-05-15T06:29:38.070Z,3768.00
2019-05-15T06:30:38.713Z,3768.00
2019-05-15T06:31:38.796Z,3772.00
2019-05-15T06:32:39.764Z,3800.00
2019-05-15T06:33:38.630Z,3852.00
2019-05-15T06:34:38.508Z,3780.00
2019-05-15T06:35:39.441Z,3788.00
2019-05-15T06:36:39.280Z,3740.00
2019-05-15T06:37:39.622Z,3816.00
2019-05-15T06:38:39.450Z,3800.00
2019-05-15T06:39:39.228Z,3760.00
2019-05-15T06:40:39.631Z,3852.00
2019-05-15T06:41:39.241Z,3808.00
2019-05-15T06:42:39.795Z,3800.00
2019-05-15T06:43:39.406Z,3792.00
2019-05-15T06:44:39.506Z,3788.00
2019-05-15T06:45:39.598Z,3760.00
2019-05-15T06:46:39.697Z,3784.00
2019-05-15T06:47:39.789Z,3804.00
2019-05-15T06:48:39.891Z,3812.00
2019-05-15T06:49:39.986Z,3828.00
2019-05-15T06:50:40.084Z,3848.00
2019-05-15T06:51:40.182Z,3892.00
2019-05-15T06:52:40.278Z,3904.00
2019-05-15T06:53:40.372Z,3900.00
2019-05-15T06:54:40.467Z,3920.00
2019-05-15T06:55:40.564Z,3928.00
2019-05-15T06:56:40.661Z,3920.00
2019-05-15T06:57:40.758Z,3892.00
2019-05-15T06:58:40.853Z,3956.00
2019-05-15T06:59:40.947Z,4032.00
2019-05-15T07:00:41.039Z,3964.00
2019-05-15T07:01:41.144Z,3976.00
2019-05-15T07:02:41.237Z,4024.00
2019-05-15T07:03:41.328Z,3996.00
2019-05-15T07:04:41.423Z,4004.00
2019-05-15T07:05:41.521Z,4012.00
2019-05-15T07:06:41.617Z,4056.00
2019-05-15T07:07:41.712Z,4008.00
2019-05-15T07:08:41.810Z,4036.00
2019-05-15T07:09:41.911Z,4140.00
2019-05-15T07:10:42.004Z,4040.00
2019-05-15T07:11:42.098Z,4136.00
2019-05-15T07:12:42.196Z,4052.00
2019-05-15T07:13:42.290Z,4288.00
2019-05-15T07:14:42.385Z,4052.00
2019-05-15T07:15:42.474Z,4064.00
2019-05-15T07:16:42.577Z,4068.00
2019-05-15T07:17:42.668Z,4072.00
2019-05-15T07:18:42.765Z,4072.00
2019-05-15T07:19:42.860Z,4228.00
2019-05-15T07:20:42.952Z,4096.00
2019-05-15T07:21:43.049Z,4100.00
2019-05-15T07:22:43.147Z,4108.00
2019-05-15T07:23:43.241Z,4208.00
2019-05-15T07:24:43.331Z,4120.00
2019-05-15T07:25:43.420Z,4128.00
2019-05-15T07:26:43.515Z,4112.00
2019-05-15T07:27:43.622Z,4144.00
2019-05-15T07:28:43.703Z,4160.00
2019-05-15T07:29:43.791Z,4160.00
2019-05-15T07:30:43.891Z,4168.00
2019-05-15T07:31:43.973Z,4236.00
2019-05-15T07:32:44.073Z,4180.00
2019-05-15T07:33:44.211Z,4176.00
2019-05-15T07:34:44.263Z,4148.00
2019-05-15T07:35:44.351Z,4204.00
2019-05-15T07:36:44.448Z,4272.00
2019-05-15T07:37:44.548Z,4228.00
2019-05-15T07:38:44.630Z,4236.00
2019-05-15T07:39:44.724Z,4220.00
2019-05-15T07:40:44.820Z,4288.00
2019-05-15T07:41:44.916Z,4300.00
2019-05-15T07:42:45.003Z,4256.00
2019-05-15T07:43:45.101Z,4264.00
2019-05-15T07:44:45.194Z,4276.00
2019-05-15T07:45:52.291Z,4228.00
2019-05-15T07:46:45.398Z,4316.00
2019-05-15T07:47:45.494Z,4544.00
2019-05-15T07:48:45.591Z,4332.00
2019-05-15T07:49:49.037Z,4280.00
2019-05-15T07:50:45.773Z,4320.00
2019-05-15T07:51:45.866Z,4356.00
2019-05-15T07:52:48.434Z,4352.00
2019-05-15T07:53:48.704Z,4372.00
2019-05-15T07:54:48.707Z,4388.00
2019-05-15T07:55:49.366Z,4576.00
2019-05-15T07:56:48.658Z,4412.00
2019-05-15T07:57:49.429Z,4384.00
2019-05-15T07:58:52.101Z,4420.00
2019-05-15T07:59:48.018Z,4448.00
2019-05-15T08:00:49.077Z,4492.00
2019-05-15T08:01:48.839Z,4532.00
2019-05-15T08:02:48.187Z,4524.00
2019-05-15T08:03:56.503Z,4512.00
2019-05-15T08:04:48.255Z,4544.00
2019-05-15T08:05:57.093Z,3896.00
2019-05-15T08:06:49.066Z,4768.00
2019-05-15T08:07:49.061Z,4420.00
2019-05-15T08:08:48.676Z,4672.00
2019-05-15T08:09:48.590Z,4928.00
2019-05-15T08:10:49.029Z,4892.00
2019-05-15T08:11:48.648Z,4848.00
2019-05-15T08:12:49.495Z,4788.00
2019-05-15T08:13:48.701Z,4672.00
2019-05-15T08:14:50.698Z,4676.00
2019-05-15T08:15:48.776Z,4848.00
2019-05-15T08:16:48.672Z,4724.00
2019-05-15T08:18:03.929Z,4760.00
2019-05-15T08:18:48.575Z,4880.00
2019-05-15T08:19:48.744Z,4884.00
2019-05-15T08:20:49.295Z,5032.00
2019-05-15T08:21:51.783Z,5072.00
2019-05-15T08:22:49.133Z,4880.00
2019-05-15T08:23:48.932Z,5036.00
2019-05-15T08:24:49.023Z,5024.00
2019-05-15T08:25:49.115Z,4840.00
2019-05-15T08:26:49.208Z,4984.00
2019-05-15T08:27:49.301Z,4948.00
2019-05-15T08:28:49.403Z,5092.00
2019-05-15T08:29:49.481Z,5016.00
2019-05-15T08:30:49.960Z,5092.00
2019-05-15T08:31:49.694Z,3924.00
2019-05-15T08:32:51.615Z,3832.00
2019-05-15T08:33:49.853Z,4912.00
2019-05-15T08:34:49.949Z,5012.00
2019-05-15T08:35:51.827Z,4884.00
2019-05-15T08:36:50.134Z,4844.00
2019-05-15T08:37:50.234Z,4924.00
2019-05-15T08:38:50.326Z,4740.00
2019-05-15T08:39:50.419Z,4804.00
2019-05-15T08:40:50.511Z,4752.00
2019-05-15T08:41:50.606Z,4776.00
2019-05-15T08:42:56.265Z,4848.00
2019-05-15T08:43:50.796Z,4952.00
2019-05-15T08:44:50.891Z,4972.00
2019-05-15T08:45:50.983Z,4936.00
2019-05-15T08:46:51.078Z,4856.00
2019-05-15T08:47:51.170Z,4872.00
2019-05-15T08:48:51.264Z,4932.00
2019-05-15T08:49:51.361Z,4800.00
2019-05-15T08:50:51.447Z,4748.00
2019-05-15T08:51:51.541Z,4712.00
2019-05-15T08:52:51.633Z,4740.00
2019-05-15T08:53:51.725Z,4768.00
2019-05-15T08:54:51.818Z,4824.00
2019-05-15T08:55:51.909Z,4788.00
2019-05-15T08:56:52.003Z,4788.00
2019-05-15T08:57:55.685Z,4780.00
2019-05-15T08:58:52.196Z,4788.00
2019-05-15T08:59:52.288Z,4804.00
2019-05-15T09:00:52.770Z,4832.00
2019-05-15T09:01:52.475Z,4968.00
2019-05-15T09:02:52.572Z,4840.00
2019-05-15T09:03:52.662Z,4756.00
2019-05-15T09:04:52.757Z,4804.00
2019-05-15T09:05:52.850Z,4816.00
2019-05-15T09:06:52.942Z,4844.00
2019-05-15T09:07:53.037Z,4880.00
2019-05-15T09:08:53.128Z,4980.00
2019-05-15T09:09:53.219Z,5080.00
2019-05-15T09:10:53.313Z,5168.00
2019-05-15T09:11:53.410Z,5260.00
2019-05-15T09:12:54.352Z,5188.00
2019-05-15T09:13:54.527Z,5132.00
2019-05-15T09:14:53.675Z,5688.00
2019-05-15T09:15:53.769Z,5092.00
2019-05-15T09:16:53.858Z,4944.00
2019-05-15T09:18:07.892Z,4992.00
2019-05-15T09:18:54.035Z,5024.00
2019-05-15T09:19:56.077Z,5044.00
2019-05-15T09:20:54.215Z,5116.00
2019-05-15T09:21:54.305Z,5152.00
2019-05-15T09:22:54.404Z,5204.00
2019-05-15T09:23:54.493Z,4984.00
2019-05-15T09:24:54.588Z,4948.00
2019-05-15T09:25:54.690Z,4928.00
2019-05-15T09:26:54.773Z,4892.00
2019-05-15T09:27:54.866Z,4848.00
2019-05-15T09:28:54.964Z,4840.00
2019-05-15T09:29:55.057Z,4896.00
2019-05-15T09:30:55.149Z,4916.00
2019-05-15T09:31:55.245Z,5028.00
2019-05-15T09:32:55.336Z,5068.00
2019-05-15T09:33:55.435Z,4960.00
2019-05-15T09:34:55.757Z,5236.00
2019-05-15T09:35:55.614Z,4940.00
2019-05-15T09:36:55.712Z,4948.00
2019-05-15T09:37:58.173Z,4972.00
2019-05-15T09:38:58.345Z,4992.00
2019-05-15T09:39:58.257Z,5144.00
2019-05-15T09:40:58.298Z,4980.00
2019-05-15T09:41:57.927Z,4960.00
2019-05-15T09:42:57.845Z,4724.00
2019-05-15T09:43:57.923Z,4964.00
2019-05-15T09:44:58.251Z,4916.00
2019-05-15T09:45:58.307Z,4988.00
2019-05-15T09:46:58.442Z,5048.00
2019-05-15T09:47:58.854Z,4780.00
2019-05-15T09:48:59.054Z,4956.00
2019-05-15T09:49:58.926Z,5044.00
2019-05-15T09:50:58.777Z,5000.00
2019-05-15T09:51:58.563Z,4984.00
2019-05-15T09:52:58.869Z,4888.00
2019-05-15T09:53:59.519Z,5012.00
2019-05-15T09:54:59.270Z,5016.00
2019-05-15T09:55:59.762Z,5004.00
2019-05-15T09:56:58.567Z,4980.00
2019-05-15T09:57:59.043Z,4960.00
2019-05-15T09:58:58.222Z,4968.00
2019-05-15T09:59:58.707Z,4952.00
2019-05-15T10:00:57.964Z,5064.00
2019-05-15T10:01:58.906Z,5188.00
2019-05-15T10:02:58.151Z,5100.00
2019-05-15T10:03:58.258Z,5032.00
2019-05-15T10:05:06.561Z,4964.00
2019-05-15T10:05:58.453Z,5224.00
2019-05-15T10:06:58.535Z,5064.00
2019-05-15T10:07:58.640Z,5136.00
2019-05-15T10:08:58.745Z,5224.00
2019-05-15T10:09:58.857Z,5336.00
2019-05-15T10:10:59.392Z,5208.00
2019-05-15T10:11:59.002Z,5252.00
2019-05-15T10:12:59.550Z,5196.00
2019-05-15T10:13:59.191Z,5116.00
2019-05-15T10:14:59.372Z,5056.00
2019-05-15T10:15:59.390Z,5044.00
2019-05-15T10:16:59.479Z,5072.00
2019-05-15T10:17:59.910Z,5040.00
2019-05-15T10:18:59.669Z,4996.00
2019-05-15T10:19:59.760Z,4988.00
2019-05-15T10:20:59.855Z,5044.00
2019-05-15T10:21:59.948Z,5132.00
2019-05-15T10:23:00.044Z,5032.00
2019-05-15T10:24:00.141Z,5028.00
2019-05-15T10:25:00.224Z,5044.00
2019-05-15T10:26:00.320Z,5808.00
2019-05-15T10:27:00.419Z,5096.00
2019-05-15T10:28:00.509Z,5104.00
2019-05-15T10:29:00.607Z,5016.00
2019-05-15T10:30:00.695Z,5096.00
2019-05-15T10:31:00.802Z,4992.00
2019-05-15T10:32:00.899Z,5064.00
2019-05-15T10:33:00.992Z,5080.00
2019-05-15T10:34:01.092Z,5088.00
2019-05-15T10:35:01.178Z,5096.00
2019-05-15T10:36:01.278Z,5068.00
2019-05-15T10:37:01.366Z,5128.00
2019-05-15T10:38:01.457Z,5268.00
2019-05-15T10:39:01.585Z,5200.00
2019-05-15T10:40:01.651Z,5252.00
2019-05-15T10:41:08.963Z,5260.00
2019-05-15T10:42:01.836Z,5136.00
2019-05-15T10:43:01.977Z,5136.00
2019-05-15T10:44:02.027Z,5132.00
2019-05-15T10:45:02.121Z,5152.00
2019-05-15T10:46:02.244Z,5160.00
2019-05-15T10:47:02.312Z,5188.00
2019-05-15T10:48:02.406Z,5132.00
2019-05-15T10:49:02.501Z,5172.00
2019-05-15T10:50:02.602Z,5176.00
2019-05-15T10:51:07.237Z,5228.00
2019-05-15T10:52:02.788Z,5104.00
2019-05-15T10:53:02.890Z,5288.00
2019-05-15T10:54:02.976Z,5280.00
2019-05-15T10:55:03.069Z,5380.00
2019-05-15T10:56:03.163Z,5880.00
2019-05-15T10:57:05.262Z,5400.00
2019-05-15T10:58:03.393Z,5436.00
2019-05-15T10:59:03.446Z,5792.00
2019-05-15T11:00:03.539Z,4132.00
2019-05-15T11:01:04.034Z,4100.00
2019-05-15T11:02:03.724Z,5864.00
2019-05-15T11:03:03.819Z,5052.00
2019-05-15T11:04:03.913Z,4352.00
2019-05-15T11:05:04.012Z,8052.00
2019-05-15T11:06:04.101Z,6348.00
2019-05-15T11:07:04.199Z,4988.00
2019-05-15T11:08:04.300Z,6880.00
2019-05-15T11:09:04.387Z,5508.00
2019-05-15T11:10:04.484Z,5876.00
2019-05-15T11:11:04.574Z,6396.00
2019-05-15T11:12:04.676Z,6476.00
2019-05-15T11:13:04.779Z,6392.00
2019-05-15T11:14:04.883Z,7992.00
2019-05-15T11:15:04.962Z,7200.00
2019-05-15T11:16:05.070Z,7988.00
2019-05-15T11:17:05.153Z,8664.00
2019-05-15T11:18:05.239Z,7812.00
2019-05-15T11:19:07.890Z,9112.00
2019-05-15T11:20:08.158Z,9036.00
2019-05-15T11:21:08.078Z,7800.00
2019-05-15T11:22:05.621Z,7032.00
2019-05-15T11:23:07.977Z,6460.00
2019-05-15T11:24:05.810Z,6556.00
2019-05-15T11:25:09.359Z,6348.00
2019-05-15T11:26:08.615Z,6476.00
2019-05-15T11:27:09.694Z,6492.00
2019-05-15T11:28:08.155Z,7072.00
2019-05-15T11:29:09.422Z,6560.00
2019-05-15T11:30:07.737Z,6824.00
2019-05-15T11:31:09.953Z,6428.00
2019-05-15T11:32:08.736Z,6640.00
2019-05-15T11:33:09.329Z,7508.00
2019-05-15T11:34:09.175Z,6896.00
2019-05-15T11:35:06.850Z,6804.00
2019-05-15T11:36:06.950Z,7116.00
2019-05-15T11:37:07.048Z,7452.00
2019-05-15T11:38:10.015Z,7080.00
2019-05-15T11:39:08.359Z,7576.00
2019-05-15T11:40:10.118Z,6864.00
2019-05-15T11:41:08.678Z,7320.00
2019-05-15T11:42:08.873Z,7244.00
2019-05-15T11:43:08.479Z,7748.00
2019-05-15T11:44:07.714Z,7040.00
2019-05-15T11:45:07.805Z,8740.00
2019-05-15T11:46:09.896Z,7272.00
2019-05-15T11:47:07.996Z,7472.00
2019-05-15T11:48:08.983Z,8068.00
2019-05-15T11:49:09.451Z,8800.00
2019-05-15T11:50:08.560Z,9180.00
2019-05-15T11:51:09.477Z,7596.00
2019-05-15T11:52:08.807Z,7800.00
2019-05-15T11:53:08.950Z,7876.00
2019-05-15T11:54:08.697Z,7640.00
2019-05-15T11:55:08.795Z,8392.00
2019-05-15T11:56:09.526Z,7676.00
2019-05-15T11:57:08.988Z,7940.00
2019-05-15T11:58:09.462Z,8136.00
2019-05-15T11:59:09.168Z,7928.00
2019-05-15T12:00:15.080Z,7576.00
2019-05-15T12:01:09.363Z,7468.00
2019-05-15T12:02:09.470Z,7812.00
2019-05-15T12:03:09.557Z,7612.00
2019-05-15T12:04:09.672Z,9516.00
2019-05-15T12:05:09.748Z,8808.00
2019-05-15T12:06:18.659Z,8468.00
2019-05-15T12:07:09.940Z,7736.00
2019-05-15T12:08:12.534Z,7888.00
2019-05-15T12:09:10.128Z,8720.00
2019-05-15T12:10:10.884Z,7856.00
2019-05-15T12:11:26.999Z,9436.00
2019-05-15T12:12:10.424Z,7736.00
2019-05-15T12:13:10.513Z,7972.00
2019-05-15T12:14:10.611Z,9924.00
2019-05-15T12:15:10.706Z,8428.00
2019-05-15T12:16:10.805Z,9256.00
2019-05-15T12:17:15.177Z,9936.00
2019-05-15T12:18:10.976Z,8936.00
2019-05-15T12:19:17.175Z,7480.00
2019-05-15T12:20:11.192Z,7628.00
2019-05-15T12:21:11.279Z,7720.00
2019-05-15T12:22:11.372Z,8048.00
2019-05-15T12:23:11.466Z,7784.00
2019-05-15T12:24:11.571Z,8448.00